sensor_id;sensor_type;location;lat;lon;timestamp;temperature;humidity
15152;DHT22;7676;50.900;6.234;2023-03-31T00:07:36;12.70;99.90
15152;DHT22;7676;50.900;6.234;2023-03-31T00:22:42;13.30;99.90
15152;DHT22;7676;50.900;6.234;2023-03-31T00:37:48;13.30;99.90
15152;DHT22;7676;50.900;6.234;2023-03-31T00:52:56;13.10;99.90
15152;DHT22;7676;50.900;6.234;2023-03-31T01:07:59;13.00;99.90
15152;DHT22;7676;50.900;6.234;2023-03-31T01:23:13;12.60;99.90
15152;DHT22;7676;50.900;6.234;2023-03-31T02:09:19;12.50;99.90
15152;DHT22;7676;50.900;6.234;2023-03-31T02:24:25;12.60;99.90
15152;DHT22;7676;50.900;6.234;2023-03-31T02:39:33;12.70;99.90
15152;DHT22;7676;50.900;6.234;2023-03-31T02:55:21;12.80;99.90
15152;DHT22;7676;50.900;6.234;2023-03-31T03:11:07;12.80;99.90
15152;DHT22;7676;50.900;6.234;2023-03-31T03:26:14;12.70;99.90
15152;DHT22;7676;50.900;6.234;2023-03-31T03:41:17;12.50;99.90
15152;DHT22;7676;50.900;6.234;2023-03-31T03:56:19;12.30;99.90
15152;DHT22;7676;50.900;6.234;2023-03-31T04:11:23;12.10;99.90
15152;DHT22;7676;50.900;6.234;2023-03-31T04:26:27;11.90;99.90
15152;DHT22;7676;50.900;6.234;2023-03-31T04:41:40;11.80;99.90
15152;DHT22;7676;50.900;6.234;2023-03-31T04:56:42;11.80;99.90
15152;DHT22;7676;50.900;6.234;2023-03-31T05:11:45;11.80;99.90
15152;DHT22;7676;50.900;6.234;2023-03-31T05:26:48;11.60;99.90
15152;DHT22;7676;50.900;6.234;2023-03-31T05:41:54;11.40;99.90
15152;DHT22;7676;50.900;6.234;2023-03-31T05:56:56;11.20;99.90
15152;DHT22;7676;50.900;6.234;2023-03-31T06:11:58;11.30;99.90
15152;DHT22;7676;50.900;6.234;2023-03-31T06:27:05;11.20;99.90
15152;DHT22;7676;50.900;6.234;2023-03-31T06:42:08;11.40;99.90
15152;DHT22;7676;50.900;6.234;2023-03-31T06:57:15;11.70;99.90
15152;DHT22;7676;50.900;6.234;2023-03-31T07:12:37;12.00;99.90
15152;DHT22;7676;50.900;6.234;2023-03-31T07:27:41;12.30;99.90
15152;DHT22;7676;50.900;6.234;2023-03-31T07:42:44;12.30;99.90
15152;DHT22;7676;50.900;6.234;2023-03-31T07:57:52;12.40;99.90
15152;DHT22;7676;50.900;6.234;2023-03-31T08:12:55;12.40;99.90
15152;DHT22;7676;50.900;6.234;2023-03-31T08:27:57;12.70;99.90
15152;DHT22;7676;50.900;6.234;2023-03-31T08:43:19;13.40;99.90
15152;DHT22;7676;50.900;6.234;2023-03-31T08:58:44;13.20;99.90
15152;DHT22;7676;50.900;6.234;2023-03-31T09:13:59;13.80;99.90
15152;DHT22;7676;50.900;6.234;2023-03-31T09:29:12;13.60;99.90
15152;DHT22;7676;50.900;6.234;2023-03-31T09:59:49;13.80;99.90
15152;DHT22;7676;50.900;6.234;2023-03-31T10:14:54;14.30;99.90
15152;DHT22;7676;50.900;6.234;2023-03-31T10:30:04;13.90;99.90
15152;DHT22;7676;50.900;6.234;2023-03-31T11:31:49;13.90;99.90
15152;DHT22;7676;50.900;6.234;2023-03-31T11:46:56;14.30;99.90
15152;DHT22;7676;50.900;6.234;2023-03-31T12:02:17;14.50;99.90
15152;DHT22;7676;50.900;6.234;2023-03-31T12:17:26;14.40;99.90
15152;DHT22;7676;50.900;6.234;2023-03-31T12:32:35;14.50;99.90
15152;DHT22;7676;50.900;6.234;2023-03-31T12:48:01;14.40;99.90
15152;DHT22;7676;50.900;6.234;2023-03-31T13:18:51;14.90;99.90
15152;DHT22;7676;50.900;6.234;2023-03-31T13:33:58;14.90;99.90
15152;DHT22;7676;50.900;6.234;2023-03-31T14:50:12;14.30;99.90
15152;DHT22;7676;50.900;6.234;2023-03-31T15:05:27;13.50;99.90
15152;DHT22;7676;50.900;6.234;2023-03-31T15:20:38;12.80;99.90
15152;DHT22;7676;50.900;6.234;2023-03-31T15:35:42;12.80;99.90
15152;DHT22;7676;50.900;6.234;2023-03-31T15:50:46;13.00;99.90
15152;DHT22;7676;50.900;6.234;2023-03-31T16:05:55;12.70;99.90
15152;DHT22;7676;50.900;6.234;2023-03-31T16:21:00;12.90;99.90
15152;DHT22;7676;50.900;6.234;2023-03-31T16:36:04;12.60;99.90
15152;DHT22;7676;50.900;6.234;2023-03-31T16:51:10;12.60;99.90
15152;DHT22;7676;50.900;6.234;2023-03-31T17:06:12;12.50;99.90
15152;DHT22;7676;50.900;6.234;2023-03-31T17:21:15;12.00;99.90
15152;DHT22;7676;50.900;6.234;2023-03-31T17:36:20;11.90;99.90
15152;DHT22;7676;50.900;6.234;2023-03-31T17:51:23;12.20;99.90
15152;DHT22;7676;50.900;6.234;2023-03-31T18:06:26;11.90;99.90
15152;DHT22;7676;50.900;6.234;2023-03-31T18:21:33;11.70;99.90
15152;DHT22;7676;50.900;6.234;2023-03-31T18:37:34;11.80;99.90
15152;DHT22;7676;50.900;6.234;2023-03-31T18:52:39;11.80;99.90
15152;DHT22;7676;50.900;6.234;2023-03-31T19:07:43;11.70;99.90
15152;DHT22;7676;50.900;6.234;2023-03-31T19:22:47;12.20;99.90
15152;DHT22;7676;50.900;6.234;2023-03-31T19:37:53;11.60;99.90
15152;DHT22;7676;50.900;6.234;2023-03-31T19:53:00;11.40;99.90
15152;DHT22;7676;50.900;6.234;2023-03-31T20:08:03;11.20;99.90
15152;DHT22;7676;50.900;6.234;2023-03-31T20:23:07;11.30;99.90
15152;DHT22;7676;50.900;6.234;2023-03-31T20:38:10;11.10;99.90
15152;DHT22;7676;50.900;6.234;2023-03-31T20:53:15;11.00;99.90
15152;DHT22;7676;50.900;6.234;2023-03-31T21:08:18;10.80;99.90
15152;DHT22;7676;50.900;6.234;2023-03-31T21:23:22;10.90;99.90
15152;DHT22;7676;50.900;6.234;2023-03-31T21:38:26;10.80;99.90
15152;DHT22;7676;50.900;6.234;2023-03-31T21:53:31;10.80;99.90
15152;DHT22;7676;50.900;6.234;2023-03-31T22:08:36;10.80;99.90
15152;DHT22;7676;50.900;6.234;2023-03-31T22:23:39;10.80;99.90
15152;DHT22;7676;50.900;6.234;2023-03-31T22:38:42;10.60;99.90
15152;DHT22;7676;50.900;6.234;2023-03-31T22:53:49;10.50;99.90
15152;DHT22;7676;50.900;6.234;2023-03-31T23:08:52;10.40;99.90
15152;DHT22;7676;50.900;6.234;2023-03-31T23:23:56;10.70;99.90
15152;DHT22;7676;50.900;6.234;2023-03-31T23:38:59;10.30;99.90
15152;DHT22;7676;50.900;6.234;2023-03-31T23:54:02;10.40;99.90
